Time;durP1;ratioP1;P1;durP2;ratioP2;P2;SDS_P1;SDS_P2;PMS_P1;PMS_P2;Temp;Humidity;BMP_temperature;BMP_pressure;BME280_temperature;BME280_humidity;BME280_pressure;Samples;Min_cycle;Max_cycle;Signal;HPM_P1;HPM_P2
2023/08/02 04:00:46;;;;;;;2.78;1.60;;;18.60;99.90;;;;;;5782659;23;20101;-66
2023/08/02 04:03:11;;;;;;;4.03;1.80;;;18.60;99.90;;;;;;4995210;28;20462;-66
2023/08/02 04:05:37;;;;;;;4.55;2.00;;;18.50;99.90;;;;;;4996148;28;20026;-67
2023/08/02 04:08:03;;;;;;;4.15;1.70;;;18.50;99.90;;;;;;4994909;28;20058;-65
2023/08/02 04:10:29;;;;;;;3.55;1.73;;;18.50;99.90;;;;;;4996462;28;20062;-67
2023/08/02 04:12:54;;;;;;;3.97;1.70;;;18.30;99.90;;;;;;4996827;28;20033;-67
2023/08/02 04:15:20;;;;;;;7.00;2.55;;;18.30;99.90;;;;;;5034006;23;20053;-68
2023/08/02 04:17:48;;;;;;;6.78;2.17;;;18.10;99.90;;;;;;5025449;28;20022;-68
2023/08/02 04:20:14;;;;;;;4.28;1.90;;;17.90;99.90;;;;;;5028520;28;20050;-67
2023/08/02 04:22:40;;;;;;;3.85;2.13;;;17.90;99.90;;;;;;5022862;28;20022;-67
2023/08/02 04:25:05;;;;;;;3.67;2.00;;;17.90;99.90;;;;;;5015058;28;20053;-67
2023/08/02 04:27:31;;;;;;;4.35;1.98;;;18.00;99.90;;;;;;5018176;28;20269;-67
2023/08/02 04:29:57;;;;;;;6.75;2.20;;;17.90;99.90;;;;;;5017454;28;20034;-67
2023/08/02 04:32:22;;;;;;;5.25;2.25;;;17.90;99.90;;;;;;5016917;28;20030;-66
2023/08/02 04:34:48;;;;;;;5.20;2.40;;;17.90;99.90;;;;;;5006541;28;20026;-68
2023/08/02 04:37:13;;;;;;;4.47;2.53;;;17.90;99.90;;;;;;4998574;28;20674;-68
2023/08/02 04:39:39;;;;;;;3.43;2.43;;;17.70;99.90;;;;;;4999290;28;20026;-68
2023/08/02 04:42:04;;;;;;;5.23;2.50;;;17.70;99.90;;;;;;4996473;28;20273;-68
2023/08/02 04:44:30;;;;;;;6.53;2.47;;;17.70;99.90;;;;;;4998069;28;20328;-68
2023/08/02 04:46:56;;;;;;;4.10;2.75;;;17.70;99.90;;;;;;5014610;28;20033;-69
2023/08/02 04:49:22;;;;;;;4.22;2.30;;;17.50;99.90;;;;;;5010675;28;20439;-68
2023/08/02 04:51:48;;;;;;;5.82;2.35;;;17.60;99.90;;;;;;4992403;28;20038;-68
2023/08/02 04:54:13;;;;;;;3.93;2.00;;;17.70;99.90;;;;;;4986787;28;20041;-67
2023/08/02 04:56:39;;;;;;;4.65;2.85;;;17.60;99.90;;;;;;4986391;28;20294;-68
2023/08/02 04:59:09;;;;;;;4.73;2.20;;;17.60;99.90;;;;;;4982226;28;20027;-70
2023/08/02 05:01:35;;;;;;;4.97;2.65;;;17.50;99.90;;;;;;4980304;28;20265;-69
2023/08/02 05:04:01;;;;;;;9.50;2.60;;;17.50;99.90;;;;;;4978882;28;20031;-71
2023/08/02 05:06:26;;;;;;;4.90;2.63;;;17.40;99.90;;;;;;4988177;28;20269;-70
2023/08/02 05:08:52;;;;;;;6.83;3.10;;;17.50;99.90;;;;;;5002318;28;20176;-69
2023/08/02 05:11:17;;;;;;;6.17;2.67;;;17.50;99.90;;;;;;4987404;28;20278;-70
2023/08/02 05:13:43;;;;;;;2.92;2.60;;;17.50;99.90;;;;;;4982533;28;20035;-70
2023/08/02 05:16:13;;;;;;;4.03;2.60;;;17.40;99.90;;;;;;4989386;28;20511;-71
2023/08/02 05:18:39;;;;;;;5.57;2.75;;;17.40;99.90;;;;;;4981136;28;20023;-69
2023/08/02 05:21:12;;;;;;;4.68;2.55;;;17.40;99.90;;;;;;4976448;28;20077;-68
2023/08/02 05:23:38;;;;;;;4.97;2.42;;;17.40;99.90;;;;;;4975398;28;20027;-68
2023/08/02 05:26:04;;;;;;;6.88;3.38;;;17.20;99.90;;;;;;4973717;28;20480;-69
2023/08/02 05:28:30;;;;;;;6.03;3.00;;;17.10;99.90;;;;;;4974756;28;20031;-67
2023/08/02 05:30:55;;;;;;;9.37;3.13;;;17.10;99.90;;;;;;4977205;28;20045;-68
2023/08/02 05:33:21;;;;;;;7.05;2.70;;;17.10;99.90;;;;;;4974588;28;20416;-67
2023/08/02 05:35:46;;;;;;;7.03;2.88;;;17.00;99.90;;;;;;4973714;28;20035;-69
2023/08/02 05:38:12;;;;;;;7.85;3.25;;;17.00;99.90;;;;;;4974615;28;20383;-69
2023/08/02 05:40:37;;;;;;;7.05;3.30;;;17.00;99.90;;;;;;4973813;28;20090;-68
2023/08/02 05:43:03;;;;;;;5.97;3.13;;;17.00;99.90;;;;;;4974482;28;20018;-69
2023/08/02 05:45:28;;;;;;;7.97;3.00;;;17.00;99.90;;;;;;4989186;28;20032;-68
2023/08/02 05:47:54;;;;;;;6.63;2.93;;;17.10;99.90;;;;;;5013684;28;20665;-68
2023/08/02 05:50:20;;;;;;;4.93;3.30;;;17.10;99.90;;;;;;5014498;28;20686;-67
2023/08/02 05:52:45;;;;;;;7.38;3.13;;;17.10;99.90;;;;;;4990305;28;20262;-68
2023/08/02 05:55:11;;;;;;;6.83;3.27;;;17.00;99.90;;;;;;4988789;28;20034;-68
2023/08/02 05:57:36;;;;;;;7.38;2.90;;;17.10;99.90;;;;;;4987922;28;20280;-68
2023/08/02 06:00:03;;;;;;;12.35;3.05;;;17.00;99.90;;;;;;4984375;28;20038;-68
2023/08/02 06:02:28;;;;;;;6.95;3.33;;;17.00;99.90;;;;;;4985611;28;20033;-68
2023/08/02 06:04:54;;;;;;;4.63;3.23;;;17.00;99.90;;;;;;4981504;28;20122;-67
2023/08/02 06:07:19;;;;;;;6.35;3.50;;;17.00;99.90;;;;;;4981733;28;20022;-67
2023/08/02 06:09:48;;;;;;;5.95;3.15;;;17.00;99.90;;;;;;4982854;28;20493;-67
2023/08/02 06:12:13;;;;;;;4.70;3.00;;;17.10;99.90;;;;;;4978452;28;20030;-66
2023/08/02 06:14:39;;;;;;;4.85;3.35;;;17.10;99.90;;;;;;4981723;28;20041;-67
2023/08/02 06:17:04;;;;;;;6.75;3.35;;;17.10;99.90;;;;;;4992275;28;20082;-67
2023/08/02 06:19:30;;;;;;;4.88;3.22;;;17.00;99.90;;;;;;4993590;28;20030;-67
2023/08/02 06:21:56;;;;;;;4.97;2.92;;;17.10;99.90;;;;;;4977579;28;20023;-67
2023/08/02 06:24:22;;;;;;;6.90;3.75;;;17.00;99.90;;;;;;4974000;28;20054;-66
2023/08/02 06:26:47;;;;;;;5.18;3.08;;;17.00;99.90;;;;;;4988584;28;20061;-66
2023/08/02 06:29:13;;;;;;;6.47;3.13;;;17.00;99.90;;;;;;4992254;28;20023;-67
2023/08/02 06:31:38;;;;;;;4.80;2.85;;;17.00;99.90;;;;;;4993263;28;20027;-66
2023/08/02 06:34:04;;;;;;;6.47;2.83;;;17.10;99.90;;;;;;4991791;28;20191;-66
2023/08/02 06:36:29;;;;;;;5.43;2.80;;;17.30;99.90;;;;;;4993398;28;20037;-68
2023/08/02 06:38:56;;;;;;;4.10;2.55;;;17.40;99.90;;;;;;4992055;28;20085;-68
2023/08/02 06:41:21;;;;;;;4.50;3.00;;;17.40;99.90;;;;;;4993338;28;20041;-68
2023/08/02 06:43:47;;;;;;;4.93;3.43;;;17.40;99.90;;;;;;4994405;28;20035;-68
2023/08/02 06:46:12;;;;;;;6.68;2.60;;;17.60;99.90;;;;;;5010009;28;20280;-69
2023/08/02 06:48:38;;;;;;;4.43;2.90;;;17.50;99.90;;;;;;5016989;28;20026;-69
2023/08/02 06:51:04;;;;;;;8.10;3.80;;;17.60;99.90;;;;;;5015014;28;20022;-69
2023/08/02 06:53:30;;;;;;;3.65;2.58;;;17.70;99.90;;;;;;5016880;28;20112;-68
2023/08/02 06:55:56;;;;;;;;;;;17.70;99.90;;;;;;5003551;28;20374;-69
2023/08/02 06:58:22;;;;;;;5.75;2.78;;;17.80;99.90;;;;;;4996822;28;19957;-69
2023/08/02 07:00:48;;;;;;;3.45;2.60;;;17.90;99.90;;;;;;4995648;28;20455;-69
2023/08/02 07:03:13;;;;;;;6.10;2.83;;;18.00;99.90;;;;;;4990194;28;20030;-69
2023/08/02 07:05:39;;;;;;;5.55;3.15;;;18.10;99.90;;;;;;4991914;28;20014;-69
2023/08/02 07:08:04;;;;;;;3.63;2.80;;;18.30;99.90;;;;;;4995584;28;20041;-68
2023/08/02 07:10:30;;;;;;;5.57;3.08;;;18.50;99.90;;;;;;4996466;28;20048;-69
2023/08/02 07:12:56;;;;;;;2.72;2.03;;;18.50;99.90;;;;;;4986965;28;20030;-68
2023/08/02 07:15:22;;;;;;;;;;;18.60;99.90;;;;;;5002264;28;20141;-68
2023/08/02 07:17:48;;;;;;;3.72;2.42;;;18.50;99.90;;;;;;5015560;28;20004;-69
2023/08/02 07:20:14;;;;;;;4.95;2.60;;;18.60;99.90;;;;;;5017573;28;20049;-70
2023/08/02 07:22:42;;;;;;;5.20;2.35;;;18.60;99.90;;;;;;5015588;28;20022;-69
2023/08/02 07:25:08;;;;;;;3.55;1.98;;;18.60;99.90;;;;;;5015482;28;20022;-68
2023/08/02 07:27:35;;;;;;;4.18;2.40;;;18.50;99.90;;;;;;5016014;28;20040;-69
2023/08/02 07:30:01;;;;;;;4.30;2.40;;;18.50;99.90;;;;;;5015929;28;20064;-68
2023/08/02 07:32:27;;;;;;;4.30;2.40;;;18.50;99.90;;;;;;5015793;28;20049;-68
2023/08/02 07:34:52;;;;;;;3.60;2.20;;;18.50;99.90;;;;;;5015750;28;20021;-68
2023/08/02 07:37:18;;;;;;;3.28;2.17;;;18.50;99.90;;;;;;5015637;28;20069;-66
2023/08/02 07:39:44;;;;;;;4.55;2.10;;;18.50;99.90;;;;;;5015735;28;20079;-66
2023/08/02 07:42:10;;;;;;;4.47;2.53;;;18.60;99.90;;;;;;5014450;28;20030;-66
2023/08/02 07:44:37;;;;;;;3.85;2.00;;;18.60;99.90;;;;;;5015597;28;20033;-66
2023/08/02 07:47:03;;;;;;;2.47;1.90;;;18.60;99.90;;;;;;5014031;28;20406;-66
2023/08/02 07:49:29;;;;;;;3.53;1.70;;;18.60;99.90;;;;;;5015701;28;20470;-66
2023/08/02 07:51:55;;;;;;;5.55;3.05;;;18.70;99.90;;;;;;5014177;28;20142;-67
2023/08/02 07:54:20;;;;;;;3.45;2.17;;;18.60;99.90;;;;;;5014183;28;20112;-67
2023/08/02 07:56:46;;;;;;;3.28;2.40;;;18.60;99.90;;;;;;5013800;28;20505;-68
2023/08/02 07:59:12;;;;;;;3.10;2.10;;;18.60;99.90;;;;;;5015469;28;20022;-68
2023/08/02 08:01:37;;;;;;;4.47;2.33;;;18.70;99.90;;;;;;5015330;28;20034;-69
2023/08/02 08:04:03;;;;;;;2.60;2.17;;;18.60;99.90;;;;;;5013986;28;20482;-69
2023/08/02 08:06:28;;;;;;;3.05;2.10;;;18.60;99.90;;;;;;5015603;28;20033;-69
2023/08/02 08:08:54;;;;;;;3.90;2.40;;;18.60;99.90;;;;;;5016152;28;20028;-69
2023/08/02 08:11:19;;;;;;;3.95;2.00;;;18.70;99.90;;;;;;5020119;28;20026;-69
2023/08/02 08:13:45;;;;;;;2.33;1.90;;;18.70;99.90;;;;;;5013934;28;20080;-67
2023/08/02 08:16:10;;;;;;;2.33;1.77;;;18.80;99.90;;;;;;5013445;28;20072;-68
2023/08/02 08:18:36;;;;;;;2.55;1.90;;;18.80;99.90;;;;;;5015045;28;20026;-68
2023/08/02 08:21:03;;;;;;;2.47;1.95;;;18.70;99.90;;;;;;5015286;28;20411;-67
2023/08/02 08:23:32;;;;;;;5.40;2.30;;;18.70;99.90;;;;;;5014831;28;20044;-67
2023/08/02 08:25:57;;;;;;;4.15;2.58;;;18.70;99.90;;;;;;5015087;28;20430;-65
2023/08/02 08:28:23;;;;;;;2.70;2.15;;;18.70;99.90;;;;;;5015128;28;20075;-67
2023/08/02 08:30:49;;;;;;;6.05;2.58;;;18.70;99.90;;;;;;5014673;28;20030;-66
2023/08/02 08:33:14;;;;;;;4.28;2.13;;;18.60;99.90;;;;;;5014738;28;20101;-66
2023/08/02 08:35:40;;;;;;;2.38;1.92;;;18.50;99.90;;;;;;5014822;28;20038;-65
2023/08/02 08:38:06;;;;;;;3.35;1.98;;;18.50;99.90;;;;;;5014746;28;20029;-67
2023/08/02 08:40:32;;;;;;;5.13;2.50;;;18.60;99.90;;;;;;5018665;28;20029;-69
2023/08/02 08:42:58;;;;;;;;;;;18.60;99.90;;;;;;5017784;28;20030;-67
2023/08/02 08:45:24;;;;;;;4.15;2.70;;;18.60;99.90;;;;;;5018430;28;20271;-68
2023/08/02 08:47:51;;;;;;;3.72;2.72;;;18.70;99.90;;;;;;5014617;28;20061;-68
2023/08/02 08:50:19;;;;;;;3.40;2.45;;;18.70;99.90;;;;;;5015467;28;20045;-68
2023/08/02 08:52:46;;;;;;;4.68;2.63;;;18.80;99.90;;;;;;5014271;28;20029;-67
2023/08/02 08:55:16;;;;;;;3.63;2.75;;;18.80;99.90;;;;;;5014636;28;20026;-67
2023/08/02 08:57:45;;;;;;;4.88;2.80;;;18.90;99.90;;;;;;5015274;28;20025;-68
2023/08/02 09:00:11;;;;;;;4.55;3.10;;;19.00;99.90;;;;;;5015956;28;20017;-67
2023/08/02 09:02:42;;;;;;;7.35;3.78;;;19.30;99.90;;;;;;5015521;28;20097;-67
2023/08/02 09:05:08;;;;;;;4.80;2.97;;;19.70;99.90;;;;;;5015855;28;20025;-68
2023/08/02 09:07:34;;;;;;;3.92;2.70;;;19.90;99.90;;;;;;5015919;28;20026;-68
2023/08/02 09:10:00;;;;;;;5.90;2.55;;;19.80;99.90;;;;;;5025169;28;20030;-67
2023/08/02 09:12:27;;;;;;;4.85;3.35;;;19.80;99.90;;;;;;5020118;28;20026;-69
2023/08/02 09:15:01;;;;;;;5.93;2.78;;;19.70;99.90;;;;;;5022652;28;20049;-67
2023/08/02 09:17:27;;;;;;;4.85;2.85;;;19.50;99.90;;;;;;5022804;28;20037;-68
2023/08/02 09:20:07;;;;;;;4.75;2.80;;;19.40;99.90;;;;;;5024344;28;20017;-68
2023/08/02 09:22:32;;;;;;;6.38;3.20;;;19.20;99.90;;;;;;5022881;28;20053;-69
2023/08/02 09:24:58;;;;;;;4.63;3.22;;;19.10;99.90;;;;;;5015946;28;20483;-69
2023/08/02 09:27:30;;;;;;;4.55;3.10;;;19.00;99.90;;;;;;5015482;28;20053;-69
2023/08/02 09:29:56;;;;;;;6.40;3.38;;;18.90;99.90;;;;;;5014046;28;20030;-68
2023/08/02 09:32:22;;;;;;;4.22;3.10;;;18.90;99.90;;;;;;5014741;28;20493;-68
2023/08/02 09:34:53;;;;;;;4.78;3.10;;;18.80;99.90;;;;;;5015454;28;20033;-68
2023/08/02 09:37:38;;;;;;;4.68;3.70;;;18.80;99.90;;;;;;5013470;28;20079;-68
2023/08/02 09:40:09;;;;;;;4.05;3.38;;;18.80;99.90;;;;;;5014969;28;20045;-68
2023/08/02 09:42:34;;;;;;;5.07;2.95;;;18.90;99.90;;;;;;5016100;28;20025;-68
2023/08/02 09:45:04;;;;;;;3.75;3.00;;;18.90;99.90;;;;;;5013901;28;20030;-68
2023/08/02 09:47:30;;;;;;;5.28;3.17;;;19.00;99.90;;;;;;5013718;28;20062;-70
2023/08/02 09:50:07;;;;;;;5.43;3.35;;;19.00;99.90;;;;;;5014173;28;20038;-68
2023/08/02 09:52:33;;;;;;;4.30;3.10;;;19.10;99.90;;;;;;5012778;28;20504;-69
2023/08/02 09:54:59;;;;;;;5.65;3.53;;;19.10;99.90;;;;;;5012431;28;20123;-68
2023/08/02 09:57:27;;;;;;;4.60;3.00;;;19.10;99.90;;;;;;5013557;28;20057;-68
2023/08/02 09:59:55;;;;;;;4.60;3.13;;;19.10;99.90;;;;;;5013785;28;20381;-69
2023/08/02 10:02:25;;;;;;;5.35;3.50;;;19.10;99.90;;;;;;5013705;28;20064;-69
2023/08/02 10:04:56;;;;;;;6.18;3.80;;;19.00;99.90;;;;;;5012009;28;20502;-69
2023/08/02 10:07:36;;;;;;;4.68;3.03;;;19.00;99.90;;;;;;5014697;28;20052;-72
2023/08/02 10:10:09;;;;;;;4.72;3.30;;;19.00;99.90;;;;;;5016411;28;20026;-69
2023/08/02 10:12:38;;;;;;;4.70;3.42;;;19.00;99.90;;;;;;5012773;28;20089;-68
2023/08/02 10:15:04;;;;;;;4.63;3.17;;;18.90;99.90;;;;;;5013663;28;20041;-68
2023/08/02 10:17:31;;;;;;;3.63;2.88;;;18.90;99.90;;;;;;5012444;28;20030;-69
2023/08/02 10:19:59;;;;;;;5.68;3.90;;;18.80;99.90;;;;;;5015615;28;20037;-68
2023/08/02 10:22:25;;;;;;;4.80;3.55;;;18.70;99.90;;;;;;5015995;28;20029;-69
2023/08/02 10:24:52;;;;;;;5.03;3.15;;;18.60;99.90;;;;;;5017527;28;20021;-69
2023/08/02 10:27:18;;;;;;;;;;;18.60;99.90;;;;;;5017686;28;20109;-69
2023/08/02 10:29:44;;;;;;;6.13;3.45;;;18.60;99.90;;;;;;5017122;28;20219;-68
2023/08/02 10:32:21;;;;;;;5.35;3.58;;;18.60;99.90;;;;;;5017247;28;20018;-69
2023/08/02 10:34:49;;;;;;;7.40;3.97;;;18.60;99.90;;;;;;5017252;28;20475;-68
2023/08/02 10:37:15;;;;;;;5.03;3.20;;;18.70;99.90;;;;;;5015689;28;20038;-68
2023/08/02 10:39:47;;;;;;;7.28;3.75;;;18.70;99.90;;;;;;5016990;28;20021;-68
2023/08/02 10:42:16;;;;;;;5.90;3.47;;;18.80;99.90;;;;;;5015914;28;20363;-69
2023/08/02 10:44:54;;;;;;;7.20;3.20;;;18.80;99.90;;;;;;5017109;28;20018;-68
2023/08/02 10:47:26;;;;;;;7.88;5.78;;;18.90;99.90;;;;;;5015158;28;20080;-69
2023/08/02 10:49:52;;;;;;;5.90;4.00;;;19.00;99.90;;;;;;5017426;28;20495;-68
2023/08/02 10:52:32;;;;;;;5.30;3.50;;;19.00;99.90;;;;;;5016835;28;20033;-69
2023/08/02 10:55:10;;;;;;;6.38;3.78;;;19.10;99.90;;;;;;5017230;28;20108;-69
2023/08/02 10:57:37;;;;;;;7.03;3.70;;;19.10;99.90;;;;;;5015110;28;20083;-69
2023/08/02 11:00:25;;;;;;;4.90;3.72;;;19.20;99.90;;;;;;5016652;28;20033;-69
2023/08/02 11:02:52;;;;;;;8.90;5.40;;;19.20;99.90;;;;;;5016179;28;20075;-69
2023/08/02 11:05:35;;;;;;;;;;;19.30;99.90;;;;;;5016590;28;20026;-68
2023/08/02 11:08:01;;;;;;;5.47;3.58;;;19.30;99.90;;;;;;5016385;28;19905;-68
2023/08/02 11:10:27;;;;;;;8.25;4.40;;;19.30;99.90;;;;;;5014972;28;20029;-67
2023/08/02 11:12:53;;;;;;;6.68;4.53;;;19.20;99.90;;;;;;5014738;28;20030;-66
2023/08/02 11:15:19;;;;;;;10.38;5.35;;;19.20;99.90;;;;;;5016477;28;20117;-67
2023/08/02 11:17:46;;;;;;;5.93;4.70;;;19.20;99.90;;;;;;5016673;28;20034;-67
2023/08/02 11:20:14;;;;;;;6.95;4.55;;;19.30;99.90;;;;;;5016497;28;20026;-66
2023/08/02 11:22:40;;;;;;;6.47;4.88;;;19.40;99.90;;;;;;5015013;28;20057;-67
2023/08/02 11:25:06;;;;;;;9.65;4.85;;;19.40;99.90;;;;;;5016104;28;20064;-67
2023/08/02 11:27:33;;;;;;;;;;;19.50;99.90;;;;;;5015463;28;20036;-66
2023/08/02 11:30:07;;;;;;;11.50;5.40;;;19.50;99.90;;;;;;5016145;28;19905;-67
2023/08/02 11:32:34;;;;;;;8.95;5.25;;;19.40;99.90;;;;;;5015856;28;20375;-67
2023/08/02 11:35:00;;;;;;;10.25;5.03;;;19.50;99.90;;;;;;5014299;28;20116;-67
2023/08/02 11:37:26;;;;;;;10.00;5.60;;;19.60;99.90;;;;;;5015978;28;20033;-67
2023/08/02 11:39:53;;;;;;;9.98;6.32;;;19.60;99.90;;;;;;5015606;28;20038;-66
2023/08/02 11:42:18;;;;;;;9.30;5.53;;;19.60;99.90;;;;;;5014167;28;20022;-66
2023/08/02 11:44:44;;;;;;;8.55;6.40;;;19.60;99.90;;;;;;5015552;28;20033;-66
2023/08/02 11:47:11;;;;;;;12.45;6.32;;;19.60;99.90;;;;;;5015283;28;20033;-67
2023/08/02 11:49:56;;;;;;;10.57;6.45;;;19.60;99.90;;;;;;5015903;28;20044;-66
2023/08/02 11:52:28;;;;;;;9.95;7.43;;;19.50;99.90;;;;;;5016293;28;20393;-68
2023/08/02 11:54:54;;;;;;;8.65;6.60;;;19.50;99.90;;;;;;5015784;28;20026;-68
2023/08/02 11:57:21;;;;;;;11.30;6.28;;;19.60;99.90;;;;;;5015964;28;20026;-65
2023/08/02 11:59:48;;;;;;;7.78;5.97;;;19.60;99.90;;;;;;5013798;28;20030;-63
2023/08/02 12:02:28;;;;;;;10.40;6.53;;;19.80;99.90;;;;;;5014994;28;20038;-66
2023/08/02 12:04:54;;;;;;;8.30;6.18;;;19.90;99.90;;;;;;5022221;28;20490;-67
2023/08/02 12:07:26;;;;;;;;;;;20.00;99.90;;;;;;5019513;28;20033;-65
2023/08/02 12:09:53;;;;;;;10.23;6.28;;;20.00;99.90;;;;;;5011085;28;19905;-64
2023/08/02 12:12:18;;;;;;;;;;;20.20;99.90;;;;;;4999675;28;20101;-65
2023/08/02 12:14:44;;;;;;;9.60;6.35;;;20.30;99.90;;;;;;4995496;28;19963;-66
2023/08/02 12:17:17;;;;;;;8.57;5.40;;;20.30;99.90;;;;;;4995548;28;20027;-66
2023/08/02 12:19:43;;;;;;;9.93;5.72;;;20.40;99.90;;;;;;4995317;28;20125;-67
2023/08/02 12:22:09;;;;;;;10.15;6.00;;;20.50;99.90;;;;;;5009072;28;20097;-67
2023/08/02 12:24:34;;;;;;;9.27;6.10;;;20.40;99.90;;;;;;5015454;28;20022;-66
2023/08/02 12:27:19;;;;;;;11.57;6.60;;;20.50;99.90;;;;;;5015582;28;20033;-67
2023/08/02 12:29:46;;;;;;;10.23;6.35;;;20.50;99.90;;;;;;5014783;28;20370;-66
2023/08/02 12:32:27;;;;;;;10.68;6.35;;;20.50;99.90;;;;;;5014717;28;20547;-68
2023/08/02 12:34:53;;;;;;;11.23;6.28;;;20.40;99.90;;;;;;5014224;28;20442;-67
2023/08/02 12:37:18;;;;;;;11.45;6.75;;;20.50;99.90;;;;;;5016683;28;20021;-67
2023/08/02 12:39:44;;;;;;;11.15;7.30;;;20.50;99.90;;;;;;5015204;28;20076;-65
2023/08/02 12:42:10;;;;;;;9.98;6.05;;;20.50;99.90;;;;;;5012888;28;20025;-66
2023/08/02 12:44:36;;;;;;;10.80;5.38;;;20.60;99.90;;;;;;5014488;28;20026;-65
2023/08/02 12:47:02;;;;;;;9.95;6.07;;;20.70;99.90;;;;;;5013051;28;20586;-66
2023/08/02 12:49:28;;;;;;;10.32;6.45;;;20.70;99.90;;;;;;5013277;28;20092;-66
2023/08/02 12:51:54;;;;;;;8.65;6.13;;;20.70;99.90;;;;;;5014384;28;20041;-67
2023/08/02 12:54:19;;;;;;;11.05;6.45;;;20.60;99.90;;;;;;5013898;28;20026;-68
2023/08/02 12:56:45;;;;;;;8.68;6.28;;;20.60;99.90;;;;;;5014107;28;20029;-65
2023/08/02 12:59:10;;;;;;;12.70;6.60;;;20.70;99.90;;;;;;5012852;28;20021;-66
2023/08/02 13:01:37;;;;;;;11.55;6.03;;;20.70;99.90;;;;;;5014097;28;20034;-66
2023/08/02 13:04:02;;;;;;;8.90;6.28;;;20.50;99.90;;;;;;5014526;28;20022;-68
2023/08/02 13:06:28;;;;;;;11.75;5.90;;;20.40;99.90;;;;;;5016651;28;20025;-63
2023/08/02 13:08:54;;;;;;;9.93;6.38;;;20.40;99.90;;;;;;5007891;28;20382;-67
2023/08/02 13:11:19;;;;;;;8.38;5.70;;;20.30;99.90;;;;;;4995211;28;20070;-67
2023/08/02 13:13:45;;;;;;;9.50;5.75;;;20.30;99.90;;;;;;4994660;28;20057;-66
2023/08/02 13:16:10;;;;;;;7.22;5.47;;;20.30;99.90;;;;;;5007705;28;20029;-67
2023/08/02 13:18:36;;;;;;;9.65;5.45;;;20.30;99.90;;;;;;5014427;28;20033;-67
2023/08/02 13:21:01;;;;;;;8.30;4.93;;;20.40;99.90;;;;;;5012442;28;20537;-66
2023/08/02 13:23:27;;;;;;;7.30;5.22;;;20.40;99.90;;;;;;5014373;28;20029;-66
2023/08/02 13:25:53;;;;;;;7.65;4.97;;;20.50;99.90;;;;;;5015208;28;20026;-67
2023/08/02 13:28:18;;;;;;;7.05;4.20;;;20.70;99.90;;;;;;5015235;28;20438;-68
2023/08/02 13:30:47;;;;;;;6.32;4.10;;;20.90;99.90;;;;;;5002816;28;20096;-72
2023/08/02 13:33:13;;;;;;;9.05;4.05;;;21.10;99.90;;;;;;4983903;28;20109;-71
2023/08/02 13:35:39;;;;;;;6.07;3.60;;;21.10;99.90;;;;;;4987831;28;20081;-67
2023/08/02 13:38:05;;;;;;;10.10;4.95;;;21.10;99.90;;;;;;4983074;28;20355;-69
2023/08/02 13:40:30;;;;;;;6.90;4.80;;;21.10;99.90;;;;;;4990039;28;20073;-70
2023/08/02 13:42:57;;;;;;;5.72;4.00;;;21.10;99.90;;;;;;4994549;28;20033;-68
2023/08/02 13:45:23;;;;;;;7.00;4.30;;;21.10;99.90;;;;;;5001416;28;20022;-68
2023/08/02 13:47:48;;;;;;;8.20;4.88;;;21.30;99.90;;;;;;5013780;28;20041;-65
2023/08/02 13:50:14;;;;;;;8.25;4.78;;;21.40;99.90;;;;;;5013639;28;20092;-67
2023/08/02 13:52:40;;;;;;;7.57;4.95;;;21.40;99.90;;;;;;5013823;28;20030;-68
2023/08/02 13:55:06;;;;;;;7.50;5.40;;;21.40;99.90;;;;;;5017595;28;20065;-68
2023/08/02 13:57:31;;;;;;;;;;;21.50;99.90;;;;;;5017158;28;20030;-68
2023/08/02 13:59:57;;;;;;;6.20;4.60;;;21.60;99.90;;;;;;5017511;28;20324;-69
2023/08/02 14:02:22;;;;;;;8.48;4.97;;;21.60;99.90;;;;;;5016200;28;20422;-68
2023/08/02 14:04:48;;;;;;;6.93;4.40;;;21.60;99.90;;;;;;5017355;28;20026;-68
2023/08/02 14:07:14;;;;;;;8.70;4.38;;;21.60;99.90;;;;;;5017711;28;20030;-70
2023/08/02 14:09:40;;;;;;;6.38;4.20;;;21.70;99.90;;;;;;5018676;28;20030;-70
2023/08/02 14:12:07;;;;;;;6.65;4.05;;;21.70;99.90;;;;;;5021857;28;20505;-69
2023/08/02 14:14:33;;;;;;;14.68;10.23;;;21.60;99.90;;;;;;5018110;28;20069;-71
2023/08/02 14:16:58;;;;;;;8.20;4.20;;;21.60;99.90;;;;;;5016533;28;20064;-69
2023/08/02 14:19:24;;;;;;;8.10;4.45;;;21.50;99.90;;;;;;5018081;28;20044;-67
2023/08/02 14:21:49;;;;;;;10.38;4.22;;;21.50;99.90;;;;;;5017492;28;20087;-69
2023/08/02 14:24:15;;;;;;;6.53;3.90;;;21.60;99.90;;;;;;5018261;28;20026;-71
2023/08/02 14:26:40;;;;;;;11.90;3.70;;;21.60;99.90;;;;;;5017833;28;20033;-70
2023/08/02 14:29:06;;;;;;;7.47;3.83;;;21.50;99.90;;;;;;5016871;28;20033;-70
2023/08/02 14:31:31;;;;;;;13.57;3.92;;;21.40;99.90;;;;;;5016945;28;20440;-69
2023/08/02 14:33:57;;;;;;;5.07;3.45;;;21.40;99.90;;;;;;5017364;28;20034;-70
2023/08/02 14:36:22;;;;;;;9.43;4.75;;;21.40;99.90;;;;;;5015794;28;20386;-73
2023/08/02 14:38:48;;;;;;;7.57;3.83;;;21.40;99.90;;;;;;5016965;28;20041;-74
2023/08/02 14:41:13;;;;;;;9.90;3.85;;;21.40;99.90;;;;;;5021671;28;20054;-74
2023/08/02 14:43:39;;;;;;;10.23;3.88;;;21.40;99.90;;;;;;5017404;28;20033;-71
2023/08/02 14:46:06;;;;;;;5.75;3.10;;;21.50;99.90;;;;;;5003930;28;20084;-70
2023/08/02 14:48:32;;;;;;;6.35;3.60;;;21.70;99.90;;;;;;4997530;28;20088;-72
2023/08/02 14:50:57;;;;;;;6.80;3.38;;;21.70;99.90;;;;;;4997367;28;20475;-71
2023/08/02 14:53:26;;;;;;;5.80;3.58;;;21.90;99.90;;;;;;4997125;28;20038;-70
2023/08/02 14:55:52;;;;;;;5.07;3.28;;;22.00;99.90;;;;;;4996916;28;20030;-70
2023/08/02 14:58:17;;;;;;;4.93;3.40;;;22.00;99.90;;;;;;4995233;28;20037;-69
2023/08/02 15:00:43;;;;;;;7.90;3.30;;;22.10;99.90;;;;;;4995372;28;20026;-71
2023/08/02 15:03:08;;;;;;;;;;;22.20;99.90;;;;;;4997321;28;20101;-70
2023/08/02 15:05:34;;;;;;;9.82;3.92;;;22.40;99.90;;;;;;4996822;28;19972;-73
2023/08/02 15:08:00;;;;;;;8.40;3.40;;;22.40;99.90;;;;;;5007102;28;20026;-74
2023/08/02 15:10:25;;;;;;;8.77;3.50;;;22.50;99.90;;;;;;4996371;28;20037;-71
2023/08/02 15:12:51;;;;;;;4.85;3.10;;;22.50;99.90;;;;;;4997332;28;20033;-69
2023/08/02 15:15:17;;;;;;;3.92;2.63;;;22.60;99.90;;;;;;5000014;28;20049;-68
2023/08/02 15:17:44;;;;;;;6.45;2.92;;;22.60;99.90;;;;;;4996517;28;20034;-70
2023/08/02 15:20:10;;;;;;;5.07;3.33;;;22.80;99.90;;;;;;4995559;28;20054;-68
2023/08/02 15:22:35;;;;;;;;;;;22.80;99.90;;;;;;4997449;28;20023;-69
2023/08/02 15:25:06;;;;;;;3.78;2.67;;;22.80;99.90;;;;;;4996929;28;19912;-70
2023/08/02 15:27:32;;;;;;;4.28;3.15;;;22.80;99.90;;;;;;4996710;28;20026;-69
2023/08/02 15:29:58;;;;;;;4.70;2.90;;;22.90;99.90;;;;;;4996431;28;20458;-70
2023/08/02 15:32:23;;;;;;;9.18;4.95;;;22.90;99.90;;;;;;4994721;28;20465;-69
2023/08/02 15:34:49;;;;;;;;;;;22.90;99.90;;;;;;4989982;28;20486;-68
2023/08/02 15:37:16;;;;;;;5.60;3.15;;;23.10;99.90;;;;;;4986227;28;19922;-70
2023/08/02 15:39:42;;;;;;;7.03;3.40;;;23.10;99.90;;;;;;4985796;28;20364;-69
2023/08/02 15:42:08;;;;;;;5.82;2.75;;;23.10;99.90;;;;;;4975868;28;20031;-69
2023/08/02 15:44:33;;;;;;;;;;;23.30;99.90;;;;;;4994957;28;20026;-69
2023/08/02 15:46:59;;;;;;;4.25;2.47;;;23.30;99.90;;;;;;4996178;28;20252;-72
2023/08/02 15:49:25;;;;;;;4.05;2.72;;;23.40;99.90;;;;;;4994646;28;20394;-69
2023/08/02 15:51:50;;;;;;;;;;;23.50;99.90;;;;;;4993650;28;20027;-69
2023/08/02 15:54:16;;;;;;;5.03;3.05;;;23.50;99.90;;;;;;4989129;28;19961;-69
2023/08/02 15:56:41;;;;;;;5.65;2.63;;;23.50;99.90;;;;;;4995143;28;20030;-73
2023/08/02 15:59:07;;;;;;;;;;;23.40;99.90;;;;;;4992945;28;20070;-69
2023/08/02 16:01:32;;;;;;;5.05;2.40;;;23.40;99.90;;;;;;4974783;28;19910;-68
2023/08/02 16:03:58;;;;;;;4.63;2.85;;;23.40;99.90;;;;;;4981835;28;20030;-68
2023/08/02 16:06:23;;;;;;;3.70;2.55;;;23.50;99.90;;;;;;4996122;28;20100;-68
2023/08/02 16:08:49;;;;;;;;;;;23.50;99.90;;;;;;4994990;28;20054;-68
2023/08/02 16:11:14;;;;;;;3.28;2.25;;;23.50;99.90;;;;;;4994627;28;20369;-68
2023/08/02 16:13:40;;;;;;;4.63;2.50;;;23.50;99.90;;;;;;4995240;28;20027;-68
2023/08/02 16:16:05;;;;;;;4.97;2.60;;;23.50;99.90;;;;;;4989981;28;20034;-69
2023/08/02 16:18:31;;;;;;;3.30;2.50;;;23.40;99.90;;;;;;4993440;28;20045;-70
2023/08/02 16:20:56;;;;;;;4.88;2.70;;;23.10;99.90;;;;;;4990272;28;20053;-69
2023/08/02 16:23:22;;;;;;;;;;;22.80;99.90;;;;;;4977881;28;20030;-69
2023/08/02 16:25:47;;;;;;;6.78;4.88;;;22.60;99.90;;;;;;4990135;28;19913;-70
2023/08/02 16:28:13;;;;;;;2.97;2.00;;;22.40;99.90;;;;;;4994117;28;20475;-69
2023/08/02 16:30:39;;;;;;;5.90;2.60;;;22.30;99.90;;;;;;4995316;28;20042;-69
2023/08/02 16:33:05;;;;;;;10.93;3.05;;;22.20;99.90;;;;;;4994416;28;20479;-69
2023/08/02 16:35:32;;;;;;;4.13;1.90;;;22.10;99.90;;;;;;4988650;28;20041;-70
2023/08/02 16:37:57;;;;;;;3.88;2.90;;;21.60;99.90;;;;;;4990459;28;20087;-71
2023/08/02 16:40:23;;;;;;;3.90;1.65;;;21.10;99.90;;;;;;4995625;28;20498;-70
2023/08/02 16:42:48;;;;;;;3.60;1.60;;;20.80;99.90;;;;;;4995736;28;20081;-69
2023/08/02 16:45:14;;;;;;;4.30;1.75;;;20.40;99.90;;;;;;4995202;28;20562;-70
2023/08/02 16:47:41;;;;;;;4.40;2.03;;;20.20;99.90;;;;;;4995257;28;20026;-70